Time,TemperatureF,DewpointF,PressureIn,WindDirection,WindDirectionDegrees,WindSpeedMPH,WindSpeedGustMPH,Humidity,HourlyPrecipIn,Conditions,Clouds,dailyrainin,SoftwareType,DateUTC
2013-06-22 00:33:00,59.1,51.9,29.86,N/A,-737280,0.0,-999.0,77,0.00,,,0.00,Wunderground v.1.15,2013-06-22 07:33:00,
2013-06-22 00:38:00,59.1,51.9,29.86,N/A,-737280,0.0,-999.0,77,0.00,,,0.00,Wunderground v.1.15,2013-06-22 07:38:00,
2013-06-22 00:43:00,59.1,51.9,29.86,N/A,-737280,0.0,-999.0,77,0.00,,,0.00,Wunderground v.1.15,2013-06-22 07:43:00,
2013-06-22 00:48:00,58.7,51.5,29.86,SW,225,0.0,-999.0,77,0.00,,,0.00,Wunderground v.1.15,2013-06-22 07:48:00,
2013-06-22 00:53:00,58.7,51.5,29.86,SW,225,0.0,-999.0,77,0.00,,,0.00,Wunderground v.1.15,2013-06-22 07:53:00,
2013-06-22 00:58:00,58.7,51.5,29.86,SW,225,0.0,-999.0,77,0.00,,,0.00,Wunderground v.1.15,2013-06-22 07:58:00,
2013-06-22 01:03:00,58.7,51.5,29.86,SW,225,0.0,-999.0,77,0.00,,,0.00,Wunderground v.1.15,2013-06-22 08:03:00,
2013-06-22 01:08:00,58.7,51.5,29.86,SW,225,0.0,-999.0,77,0.00,,,0.00,Wunderground v.1.15,2013-06-22 08:08:00,
2013-06-22 01:13:00,58.7,51.5,29.86,SW,225,0.0,-999.0,77,0.00,,,0.00,Wunderground v.1.15,2013-06-22 08:13:00,
2013-06-22 01:18:00,57.9,50.7,29.86,N/A,-737280,0.0,-999.0,77,0.00,,,0.00,Wunderground v.1.15,2013-06-22 08:18:00,
2013-06-22 01:23:00,57.9,50.7,29.86,N/A,-737280,0.0,-999.0,77,0.00,,,0.00,Wunderground v.1.15,2013-06-22 08:23:00,
2013-06-22 01:28:00,57.9,50.7,29.86,N/A,-737280,0.0,-999.0,77,0.00,,,0.00,Wunderground v.1.15,2013-06-22 08:28:00,
2013-06-22 01:33:00,57.9,50.7,29.86,N/A,-737280,0.0,-999.0,77,0.00,,,0.00,Wunderground v.1.15,2013-06-22 08:33:00,
2013-06-22 01:38:00,57.9,50.7,29.86,N/A,-737280,0.0,-999.0,77,0.00,,,0.00,Wunderground v.1.15,2013-06-22 08:38:00,
2013-06-22 01:43:00,57.9,50.7,29.86,N/A,-737280,0.0,-999.0,77,0.00,,,0.00,Wunderground v.1.15,2013-06-22 08:43:00,
2013-06-22 01:48:00,57.0,50.5,29.86,N/A,-737280,0.0,-999.0,79,0.00,,,0.00,Wunderground v.1.15,2013-06-22 08:48:00,
2013-06-22 01:53:00,57.0,50.5,29.86,N/A,-737280,0.0,-999.0,79,0.00,,,0.00,Wunderground v.1.15,2013-06-22 08:53:00,
2013-06-22 01:58:00,57.0,50.5,29.86,N/A,-737280,0.0,-999.0,79,0.00,,,0.00,Wunderground v.1.15,2013-06-22 08:58:00,
2013-06-22 02:03:00,57.0,50.5,29.86,N/A,-737280,0.0,-999.0,79,0.00,,,0.00,Wunderground v.1.15,2013-06-22 09:03:00,
2013-06-22 02:08:00,57.0,50.5,29.86,N/A,-737280,0.0,-999.0,79,0.00,,,0.00,Wunderground v.1.15,2013-06-22 09:08:00,
2013-06-22 02:13:00,57.0,50.5,29.86,N/A,-737280,0.0,-999.0,79,0.00,,,0.00,Wunderground v.1.15,2013-06-22 09:13:00,
2013-06-22 02:18:00,56.9,51.1,29.86,N/A,-737280,0.0,-999.0,81,0.00,,,0.00,Wunderground v.1.15,2013-06-22 09:18:00,
2013-06-22 02:23:00,56.9,51.1,29.86,N/A,-737280,0.0,-999.0,81,0.00,,,0.00,Wunderground v.1.15,2013-06-22 09:23:00,
2013-06-22 02:28:00,56.9,51.1,29.86,N/A,-737280,0.0,-999.0,81,0.00,,,0.00,Wunderground v.1.15,2013-06-22 09:28:00,
2013-06-22 02:33:00,56.9,51.1,29.86,N/A,-737280,0.0,-999.0,81,0.00,,,0.00,Wunderground v.1.15,2013-06-22 09:33:00,
2013-06-22 02:38:00,56.9,51.1,29.86,N/A,-737280,0.0,-999.0,81,0.00,,,0.00,Wunderground v.1.15,2013-06-22 09:38:00,
2013-06-22 02:43:00,56.9,51.1,29.86,N/A,-737280,0.0,-999.0,81,0.00,,,0.00,Wunderground v.1.15,2013-06-22 09:43:00,
2013-06-22 02:48:00,55.7,50.0,29.86,N/A,-737280,0.0,-999.0,81,0.00,,,0.00,Wunderground v.1.15,2013-06-22 09:48:00,
2013-06-22 02:53:00,55.7,50.0,29.86,N/A,-737280,0.0,-999.0,81,0.00,,,0.00,Wunderground v.1.15,2013-06-22 09:53:00,
2013-06-22 02:58:00,55.7,50.0,29.86,N/A,-737280,0.0,-999.0,81,0.00,,,0.00,Wunderground v.1.15,2013-06-22 09:58:00,
2013-06-22 03:03:00,55.7,50.0,29.86,N/A,-737280,0.0,-999.0,81,0.00,,,0.00,Wunderground v.1.15,2013-06-22 10:03:00,
2013-06-22 03:08:00,55.7,50.0,29.86,N/A,-737280,0.0,-999.0,81,0.00,,,0.00,Wunderground v.1.15,2013-06-22 10:08:00,
2013-06-22 03:13:00,55.7,50.0,29.86,N/A,-737280,0.0,-999.0,81,0.00,,,0.00,Wunderground v.1.15,2013-06-22 10:13:00,
2013-06-22 03:18:00,55.3,49.6,29.87,N/A,-737280,0.0,-999.0,81,0.00,,,0.00,Wunderground v.1.15,2013-06-22 10:18:00,
2013-06-22 03:23:00,55.3,49.6,29.87,N/A,-737280,0.0,-999.0,81,0.00,,,0.00,Wunderground v.1.15,2013-06-22 10:23:00,
2013-06-22 03:28:00,55.3,49.6,29.87,N/A,-737280,0.0,-999.0,81,0.00,,,0.00,Wunderground v.1.15,2013-06-22 10:28:00,
2013-06-22 03:33:00,55.3,49.6,29.87,N/A,-737280,0.0,-999.0,81,0.00,,,0.00,Wunderground v.1.15,2013-06-22 10:33:00,
2013-06-22 03:38:00,55.3,49.6,29.87,N/A,-737280,0.0,-999.0,81,0.00,,,0.00,Wunderground v.1.15,2013-06-22 10:38:00,
2013-06-22 03:43:00,55.3,49.6,29.87,N/A,-737280,0.0,-999.0,81,0.00,,,0.00,Wunderground v.1.15,2013-06-22 10:43:00,
2013-06-22 03:48:00,55.1,49.4,29.87,N/A,-737280,0.0,-999.0,81,0.00,,,0.00,Wunderground v.1.15,2013-06-22 10:48:00,
2013-06-22 03:53:00,55.1,49.4,29.87,N/A,-737280,0.0,-999.0,81,0.00,,,0.00,Wunderground v.1.15,2013-06-22 10:53:00,
2013-06-22 03:58:00,55.1,49.4,29.87,N/A,-737280,0.0,-999.0,81,0.00,,,0.00,Wunderground v.1.15,2013-06-22 10:58:00,
2013-06-22 04:03:00,55.1,49.4,29.87,N/A,-737280,0.0,-999.0,81,0.00,,,0.00,Wunderground v.1.15,2013-06-22 11:03:00,
2013-06-22 04:08:00,55.1,49.4,29.87,N/A,-737280,0.0,-999.0,81,0.00,,,0.00,Wunderground v.1.15,2013-06-22 11:08:00,
2013-06-22 04:13:00,55.1,49.4,29.87,N/A,-737280,0.0,-999.0,81,0.00,,,0.00,Wunderground v.1.15,2013-06-22 11:13:00,
2013-06-22 04:18:00,54.8,49.7,29.87,N/A,-737280,0.0,-999.0,83,0.00,,,0.00,Wunderground v.1.15,2013-06-22 11:18:00,
2013-06-22 04:23:00,54.8,49.7,29.87,N/A,-737280,0.0,-999.0,83,0.00,,,0.00,Wunderground v.1.15,2013-06-22 11:23:00,
2013-06-22 04:28:00,54.8,49.7,29.87,N/A,-737280,0.0,-999.0,83,0.00,,,0.00,Wunderground v.1.15,2013-06-22 11:28:00,
2013-06-22 04:33:00,54.8,49.7,29.87,N/A,-737280,0.0,-999.0,83,0.00,,,0.00,Wunderground v.1.15,2013-06-22 11:33:00,
2013-06-22 04:38:00,54.8,49.7,29.87,N/A,-737280,0.0,-999.0,83,0.00,,,0.00,Wunderground v.1.15,2013-06-22 11:38:00,
2013-06-22 04:43:00,54.8,49.7,29.87,N/A,-737280,0.0,-999.0,83,0.00,,,0.00,Wunderground v.1.15,2013-06-22 11:43:00,
2013-06-22 04:48:00,54.5,49.4,29.87,N/A,-737280,0.0,-999.0,83,0.00,,,0.00,Wunderground v.1.15,2013-06-22 11:48:00,
2013-06-22 04:53:00,54.5,49.4,29.87,N/A,-737280,0.0,-999.0,83,0.00,,,0.00,Wunderground v.1.15,2013-06-22 11:53:00,
2013-06-22 04:58:00,54.5,49.4,29.87,N/A,-737280,0.0,-999.0,83,0.00,,,0.00,Wunderground v.1.15,2013-06-22 11:58:00,
2013-06-22 05:03:00,54.5,49.4,29.87,N/A,-737280,0.0,-999.0,83,0.00,,,0.00,Wunderground v.1.15,2013-06-22 12:03:00,
2013-06-22 05:08:00,54.5,49.4,29.87,N/A,-737280,0.0,-999.0,83,0.00,,,0.00,Wunderground v.1.15,2013-06-22 12:08:00,
2013-06-22 05:13:00,54.5,49.4,29.87,N/A,-737280,0.0,-999.0,83,0.00,,,0.00,Wunderground v.1.15,2013-06-22 12:13:00,
2013-06-22 05:18:00,53.5,48.8,29.88,South,180,0.0,-999.0,84,0.00,,,0.00,Wunderground v.1.15,2013-06-22 12:18:00,
2013-06-22 05:23:00,53.5,48.8,29.88,South,180,0.0,-999.0,84,0.00,,,0.00,Wunderground v.1.15,2013-06-22 12:23:00,
2013-06-22 05:28:00,53.5,48.8,29.88,South,180,0.0,-999.0,84,0.00,,,0.00,Wunderground v.1.15,2013-06-22 12:28:00,
2013-06-22 05:33:00,53.5,48.8,29.88,South,180,0.0,-999.0,84,0.00,,,0.00,Wunderground v.1.15,2013-06-22 12:33:00,
2013-06-22 05:38:00,53.5,48.8,29.88,South,180,0.0,-999.0,84,0.00,,,0.00,Wunderground v.1.15,2013-06-22 12:38:00,
2013-06-22 05:43:00,53.5,48.8,29.88,South,180,0.0,-999.0,84,0.00,,,0.00,Wunderground v.1.15,2013-06-22 12:43:00,
2013-06-22 05:48:00,53.9,49.5,29.88,SSE,158,0.0,-999.0,85,0.00,,,0.00,Wunderground v.1.15,2013-06-22 12:48:00,
2013-06-22 05:53:00,53.9,49.5,29.88,SSE,158,0.0,-999.0,85,0.00,,,0.00,Wunderground v.1.15,2013-06-22 12:53:00,
2013-06-22 05:58:00,53.9,49.5,29.88,SSE,158,0.0,-999.0,85,0.00,,,0.00,Wunderground v.1.15,2013-06-22 12:58:00,
2013-06-22 06:03:00,53.9,49.5,29.88,SSE,158,0.0,-999.0,85,0.00,,,0.00,Wunderground v.1.15,2013-06-22 13:03:00,
2013-06-22 06:08:00,53.9,49.5,29.88,SSE,158,0.0,-999.0,85,0.00,,,0.00,Wunderground v.1.15,2013-06-22 13:08:00,
2013-06-22 06:13:00,53.9,49.5,29.88,SSE,158,0.0,-999.0,85,0.00,,,0.00,Wunderground v.1.15,2013-06-22 13:13:00,
2013-06-22 06:18:00,54.5,50.7,29.88,SSE,158,0.0,-999.0,87,0.00,,,0.00,Wunderground v.1.15,2013-06-22 13:18:00,
2013-06-22 06:23:00,54.5,50.7,29.88,SSE,158,0.0,-999.0,87,0.00,,,0.00,Wunderground v.1.15,2013-06-22 13:23:00,
2013-06-22 06:34:00,54.5,50.7,29.88,SSE,158,0.0,-999.0,87,0.00,,,0.00,Wunderground v.1.15,2013-06-22 13:34:00,
2013-06-22 06:40:00,55.3,51.5,29.89,South,188,0.0,0.0,87,0.00,,,0.00,Wunderground v.1.15,2013-06-22 13:40:00,
2013-06-22 06:46:00,55.8,52.0,29.89,SSE,165,0.0,1.0,87,0.00,,,0.00,Wunderground v.1.15,2013-06-22 13:46:00,
2013-06-22 06:52:00,56.8,53.3,29.89,SSE,163,0.0,1.0,88,0.00,,,0.00,Wunderground v.1.15,2013-06-22 13:52:00,
2013-06-22 06:58:00,57.7,53.5,29.89,SSE,153,0.0,0.0,86,0.00,,,0.00,Wunderground v.1.15,2013-06-22 13:58:00,
2013-06-22 07:04:00,58.2,53.4,29.89,SSE,158,0.0,0.0,84,0.00,,,0.00,Wunderground v.1.15,2013-06-22 14:04:00,
2013-06-22 07:10:00,58.8,53.3,29.90,WSW,240,0.0,0.0,82,0.00,,,0.00,Wunderground v.1.15,2013-06-22 14:10:00,
2013-06-22 07:16:00,59.7,53.9,29.90,SSW,208,0.0,1.0,81,0.00,,,0.00,Wunderground v.1.15,2013-06-22 14:16:00,
2013-06-22 07:22:00,61.0,54.4,29.90,WSW,243,0.0,0.0,79,0.00,,,0.00,Wunderground v.1.15,2013-06-22 14:22:00,
2013-06-22 07:28:00,62.5,54.8,29.90,WSW,250,0.0,1.0,76,0.00,,,0.00,Wunderground v.1.15,2013-06-22 14:28:00,
2013-06-22 07:34:00,63.6,55.5,29.90,WSW,243,1.0,2.0,75,0.00,,,0.00,Wunderground v.1.15,2013-06-22 14:34:00,
2013-06-22 07:40:00,64.4,55.9,29.90,WSW,253,1.0,1.0,74,0.00,,,0.00,Wunderground v.1.15,2013-06-22 14:40:00,
2013-06-22 07:46:00,65.1,56.2,29.90,WSW,248,1.0,2.0,73,0.00,,,0.00,Wunderground v.1.15,2013-06-22 14:46:00,
2013-06-22 07:52:00,65.8,56.9,29.90,WSW,257,1.0,2.0,73,0.00,,,0.00,Wunderground v.1.15,2013-06-22 14:52:00,
2013-06-22 07:58:00,66.4,57.5,29.90,SW,236,0.0,2.0,73,0.00,,,0.00,Wunderground v.1.15,2013-06-22 14:58:00,
2013-06-22 08:04:00,67.1,57.8,29.91,SW,236,0.0,0.0,72,0.00,,,0.00,Wunderground v.1.15,2013-06-22 15:04:00,
2013-06-22 08:10:00,68.1,57.5,29.91,SW,231,0.0,2.0,69,0.00,,,0.00,Wunderground v.1.15,2013-06-22 15:10:00,
2013-06-22 08:16:00,68.4,58.2,29.91,WSW,252,0.0,2.0,70,0.00,,,0.00,Wunderground v.1.15,2013-06-22 15:16:00,
2013-06-22 08:22:00,68.7,57.7,29.91,West,280,1.0,2.0,68,0.00,,,0.00,Wunderground v.1.15,2013-06-22 15:22:00,
2013-06-22 08:28:00,69.0,58.0,29.91,NNW,328,1.0,2.0,68,0.00,,,0.00,Wunderground v.1.15,2013-06-22 15:28:00,
2013-06-22 08:34:00,69.2,57.8,29.91,WSW,240,0.0,2.0,67,0.00,,,0.00,Wunderground v.1.15,2013-06-22 15:34:00,
2013-06-22 08:40:00,69.2,58.2,29.91,SW,233,1.0,2.0,68,0.00,,,0.00,Wunderground v.1.15,2013-06-22 15:40:00,
2013-06-22 08:46:00,69.1,58.1,29.91,West,270,1.0,2.0,68,0.00,,,0.00,Wunderground v.1.15,2013-06-22 15:46:00,
2013-06-22 08:52:00,69.4,58.0,29.91,ENE,72,1.0,3.0,67,0.00,,,0.00,Wunderground v.1.15,2013-06-22 15:52:00,
2013-06-22 08:58:00,69.5,58.1,29.91,WSW,246,1.0,3.0,67,0.00,,,0.00,Wunderground v.1.15,2013-06-22 15:58:00,
2013-06-22 09:04:00,69.3,58.3,29.91,SSW,205,1.0,3.0,68,0.00,,,0.00,Wunderground v.1.15,2013-06-22 16:04:00,
2013-06-22 09:10:00,69.1,58.5,29.92,West,263,2.0,2.0,69,0.00,,,0.00,Wunderground v.1.15,2013-06-22 16:10:00,
2013-06-22 09:16:00,69.2,58.2,29.92,West,267,2.0,4.0,68,0.00,,,0.00,Wunderground v.1.15,2013-06-22 16:16:00,
2013-06-22 09:22:00,69.5,58.5,29.92,NW,322,2.0,2.0,68,0.00,,,0.00,Wunderground v.1.15,2013-06-22 16:22:00,
2013-06-22 09:28:00,70.1,58.6,29.91,South,186,1.0,2.0,67,0.00,,,0.00,Wunderground v.1.15,2013-06-22 16:28:00,
2013-06-22 09:34:00,70.5,58.2,29.91,SW,226,2.0,2.0,65,0.00,,,0.00,Wunderground v.1.15,2013-06-22 16:34:00,
2013-06-22 09:40:00,70.7,57.9,29.92,WSW,253,2.0,4.0,64,0.00,,,0.00,Wunderground v.1.15,2013-06-22 16:40:00,
2013-06-22 09:46:00,71.1,57.9,29.92,NW,311,2.0,4.0,63,0.00,,,0.00,Wunderground v.1.15,2013-06-22 16:46:00,
2013-06-22 09:52:00,71.2,58.0,29.92,SW,231,2.0,2.0,63,0.00,,,0.00,Wunderground v.1.15,2013-06-22 16:52:00,
2013-06-22 09:58:00,71.5,57.8,29.92,WSW,253,2.0,3.0,62,0.00,,,0.00,Wunderground v.1.15,2013-06-22 16:58:00,
2013-06-22 10:04:00,71.9,57.7,29.92,West,267,2.0,4.0,61,0.00,,,0.00,Wunderground v.1.15,2013-06-22 17:04:00,
2013-06-22 10:10:00,72.6,58.4,29.91,NNE,13,1.0,1.0,61,0.00,,,0.00,Wunderground v.1.15,2013-06-22 17:10:00,
2013-06-22 10:16:00,72.6,57.4,29.91,NW,326,1.0,3.0,59,0.00,,,0.00,Wunderground v.1.15,2013-06-22 17:16:00,
2013-06-22 10:22:00,73.1,57.9,29.92,WSW,249,1.0,1.0,59,0.00,,,0.00,Wunderground v.1.15,2013-06-22 17:22:00,
2013-06-22 10:28:00,74.0,58.8,29.92,NNE,23,1.0,1.0,59,0.00,,,0.00,Wunderground v.1.15,2013-06-22 17:28:00,
2013-06-22 10:34:00,74.6,58.4,29.91,West,281,0.0,5.0,57,0.00,,,0.00,Wunderground v.1.15,2013-06-22 17:34:00,
2013-06-22 10:40:00,74.8,58.5,29.91,SW,219,1.0,1.0,57,0.00,,,0.00,Wunderground v.1.15,2013-06-22 17:40:00,
2013-06-22 10:46:00,74.8,59.0,29.91,WSW,238,1.0,6.0,58,0.00,,,0.00,Wunderground v.1.15,2013-06-22 17:46:00,
2013-06-22 10:52:00,74.5,59.7,29.91,WSW,255,2.0,5.0,60,0.00,,,0.00,Wunderground v.1.15,2013-06-22 17:52:00,
2013-06-22 10:58:00,74.5,60.2,29.91,SW,226,2.0,5.0,61,0.00,,,0.00,Wunderground v.1.15,2013-06-22 17:58:00,
2013-06-22 11:04:00,74.9,59.6,29.91,SW,225,1.0,2.0,59,0.00,,,0.00,Wunderground v.1.15,2013-06-22 18:04:00,
2013-06-22 11:10:00,74.7,60.8,29.91,WSW,243,2.0,4.0,62,0.00,,,0.00,Wunderground v.1.15,2013-06-22 18:10:00,
2013-06-22 11:16:00,75.1,60.7,29.91,WSW,255,2.0,4.0,61,0.00,,,0.00,Wunderground v.1.15,2013-06-22 18:16:00,
2013-06-22 11:22:00,75.6,61.2,29.91,West,269,2.0,2.0,61,0.00,,,0.00,Wunderground v.1.15,2013-06-22 18:22:00,
2013-06-22 11:28:00,75.7,60.8,29.91,SSW,205,1.0,4.0,60,0.00,,,0.00,Wunderground v.1.15,2013-06-22 18:28:00,
2013-06-22 11:34:00,75.7,60.8,29.91,SW,236,2.0,4.0,60,0.00,,,0.00,Wunderground v.1.15,2013-06-22 18:34:00,
2013-06-22 11:40:00,75.7,60.8,29.91,WSW,253,2.0,2.0,60,0.00,,,0.00,Wunderground v.1.15,2013-06-22 18:40:00,